createdAt,value
2018-04-05T00:00:02.454Z,13.14
2018-04-05T00:01:02.407Z,13.17
2018-04-05T00:02:02.362Z,13.11
2018-04-05T00:03:02.317Z,13.07
2018-04-05T00:04:02.271Z,13.03
2018-04-05T00:05:02.225Z,13.03
2018-04-05T00:06:02.179Z,13.04
2018-04-05T00:07:02.134Z,12.95
2018-04-05T00:08:02.089Z,12.97
2018-04-05T00:09:02.075Z,12.92
2018-04-05T00:10:01.997Z,12.96
2018-04-05T00:11:01.950Z,12.95
2018-04-05T00:12:01.904Z,12.90
2018-04-05T00:13:01.859Z,12.96
2018-04-05T00:14:01.813Z,13.00
2018-04-05T00:15:01.768Z,12.95
2018-04-05T00:16:01.722Z,12.95
2018-04-05T00:17:01.676Z,13.10
2018-04-05T00:18:01.636Z,13.05
2018-04-05T00:19:01.584Z,13.14
2018-04-05T00:20:01.539Z,13.11
2018-04-05T00:21:01.492Z,13.20
2018-04-05T00:22:01.449Z,13.20
2018-04-05T00:23:01.412Z,13.30
2018-04-05T00:24:01.365Z,13.23
2018-04-05T00:25:01.313Z,13.26
2018-04-05T00:26:01.266Z,13.32
2018-04-05T00:27:01.218Z,13.22
2018-04-05T00:28:01.172Z,13.28
2018-04-05T00:29:01.126Z,13.28
2018-04-05T00:30:01.080Z,13.29
2018-04-05T00:31:01.035Z,13.23
2018-04-05T00:32:00.988Z,13.23
2018-04-05T00:33:00.949Z,13.26
2018-04-05T00:34:00.904Z,13.23
2018-04-05T00:35:00.852Z,13.14
2018-04-05T00:36:00.806Z,13.11
2018-04-05T00:37:00.761Z,13.08
2018-04-05T00:38:00.714Z,13.08
2018-04-05T00:39:00.669Z,13.10
2018-04-05T00:40:00.622Z,13.01
2018-04-05T00:41:00.579Z,13.08
2018-04-05T00:42:00.531Z,13.07
2018-04-05T00:43:00.486Z,13.11
2018-04-05T00:44:00.439Z,13.04
2018-04-05T00:45:00.393Z,13.05
2018-04-05T00:46:00.348Z,13.05
2018-04-05T00:47:00.352Z,12.95
2018-04-05T00:48:00.259Z,12.95
2018-04-05T00:49:00.210Z,13.04
2018-04-05T00:50:00.164Z,12.89
2018-04-05T00:51:00.119Z,12.90
2018-04-05T00:52:00.072Z,12.75
2018-04-05T00:53:00.027Z,12.78
2018-04-05T00:53:59.980Z,12.74
2018-04-05T00:54:59.935Z,12.68
2018-04-05T00:55:59.889Z,12.65
2018-04-05T00:56:59.842Z,12.56
2018-04-05T00:57:59.797Z,12.59
2018-04-05T00:58:59.751Z,12.52
2018-04-05T00:59:59.736Z,12.53
2018-04-05T01:00:59.660Z,12.49
2018-04-05T01:01:59.613Z,12.52
2018-04-05T01:02:59.568Z,12.52
2018-04-05T01:03:59.620Z,12.54
2018-04-05T01:04:59.475Z,12.56
2018-04-05T01:05:59.429Z,12.56
2018-04-05T01:06:59.388Z,12.60
2018-04-05T01:07:59.337Z,12.68
2018-04-05T01:08:59.291Z,12.78
2018-04-05T01:09:59.244Z,12.83
2018-04-05T01:10:59.198Z,12.85
2018-04-05T01:11:59.152Z,12.85
2018-04-05T01:12:59.107Z,12.89
2018-04-05T01:13:59.111Z,12.87
2018-04-05T01:14:59.027Z,12.96
2018-04-05T01:15:58.968Z,13.01
2018-04-05T01:16:58.923Z,12.95
2018-04-05T01:17:58.876Z,12.90
2018-04-05T01:18:58.836Z,12.74
2018-04-05T01:19:58.783Z,12.82
2018-04-05T01:20:58.738Z,12.86
2018-04-05T01:21:58.692Z,12.79
2018-04-05T01:22:58.646Z,12.74
2018-04-05T01:23:58.600Z,12.74
2018-04-05T01:24:58.553Z,12.72
2018-04-05T01:25:58.508Z,12.72
2018-04-05T01:26:58.462Z,12.71
2018-04-05T01:27:58.414Z,12.60
2018-04-05T01:28:58.369Z,12.53
2018-04-05T01:29:58.324Z,12.50
2018-04-05T01:30:58.279Z,12.46
2018-04-05T01:31:58.231Z,12.39
2018-04-05T01:32:58.186Z,12.28
2018-04-05T01:33:58.139Z,12.29
2018-04-05T01:34:58.094Z,12.28
2018-04-05T01:35:58.047Z,12.23
2018-04-05T01:36:58.071Z,12.12
2018-04-05T01:37:57.955Z,12.14
2018-04-05T01:38:57.909Z,12.09
2018-04-05T01:39:57.862Z,12.10
2018-04-05T01:40:57.816Z,11.99
2018-04-05T01:41:57.774Z,11.99
2018-04-05T01:42:57.724Z,11.91
2018-04-05T01:43:57.691Z,11.80
2018-04-05T01:44:57.631Z,11.83
2018-04-05T01:45:57.588Z,11.79
2018-04-05T01:46:57.539Z,11.80
2018-04-05T01:47:57.492Z,11.73
2018-04-05T01:48:57.446Z,11.75
2018-04-05T01:49:57.400Z,11.75
2018-04-05T01:50:57.355Z,11.69
2018-04-05T01:51:57.308Z,11.62
2018-04-05T01:52:57.262Z,11.65
2018-04-05T01:53:57.215Z,11.62
2018-04-05T01:54:57.169Z,11.61
2018-04-05T01:55:57.122Z,11.62
2018-04-05T01:56:57.076Z,11.60
2018-04-05T01:57:57.035Z,11.64
2018-04-05T01:58:56.983Z,11.55
2018-04-05T01:59:56.937Z,11.58
2018-04-05T02:00:56.890Z,11.58
2018-04-05T02:01:56.844Z,11.54
2018-04-05T02:02:56.798Z,11.47
2018-04-05T02:03:56.757Z,11.47
2018-04-05T02:04:56.706Z,11.40
2018-04-05T02:05:56.660Z,11.44
2018-04-05T02:06:57.237Z,11.37
2018-04-05T02:07:56.565Z,11.39
2018-04-05T02:08:56.518Z,11.39
2018-04-05T02:09:56.472Z,11.36
2018-04-05T02:10:56.476Z,11.40
2018-04-05T02:11:56.379Z,11.33
2018-04-05T02:12:56.333Z,11.39
2018-04-05T02:13:56.286Z,11.25
2018-04-05T02:14:56.240Z,11.29
2018-04-05T02:15:56.192Z,11.27
2018-04-05T02:16:56.146Z,11.24
2018-04-05T02:17:56.100Z,11.24
2018-04-05T02:18:56.054Z,11.24
2018-04-05T02:19:56.006Z,11.21
2018-04-05T02:20:55.960Z,11.18
2018-04-05T02:21:55.914Z,11.21
2018-04-05T02:22:55.867Z,11.15
2018-04-05T02:23:55.820Z,11.15
2018-04-05T02:24:55.773Z,11.17
2018-04-05T02:25:55.727Z,11.09
2018-04-05T02:26:55.680Z,11.17
2018-04-05T02:27:55.633Z,11.14
2018-04-05T02:28:55.586Z,11.11
2018-04-05T02:29:55.539Z,11.17
2018-04-05T02:30:55.498Z,11.03
2018-04-05T02:31:55.456Z,11.15
2018-04-05T02:32:55.401Z,11.11
2018-04-05T02:33:55.354Z,11.09
2018-04-05T02:34:55.306Z,11.09
2018-04-05T02:35:55.259Z,11.09
2018-04-05T02:36:55.212Z,11.09
2018-04-05T02:37:55.166Z,11.02
2018-04-05T02:38:55.119Z,11.06
2018-04-05T02:39:55.071Z,11.04
2018-04-05T02:40:55.024Z,11.04
2018-04-05T02:41:54.985Z,10.99
2018-04-05T02:42:54.931Z,10.99
2018-04-05T02:43:54.883Z,10.96
2018-04-05T02:44:54.837Z,10.99
2018-04-05T02:45:54.840Z,10.99
2018-04-05T02:46:54.744Z,10.96
2018-04-05T02:47:54.696Z,10.92
2018-04-05T02:48:54.650Z,10.91
2018-04-05T02:49:54.601Z,10.92
2018-04-05T02:50:54.554Z,10.96
2018-04-05T02:51:54.507Z,10.97
2018-04-05T02:52:54.460Z,10.92
2018-04-05T02:53:54.413Z,10.91
2018-04-05T02:54:54.366Z,10.96
2018-04-05T02:55:54.319Z,10.86
2018-04-05T02:56:54.277Z,10.91
2018-04-05T02:57:54.225Z,10.81
2018-04-05T02:58:54.177Z,10.85
2018-04-05T02:59:54.130Z,10.91
2018-04-05T03:00:54.083Z,10.88
2018-04-05T03:01:54.036Z,10.71
2018-04-05T03:02:53.993Z,10.85
2018-04-05T03:03:53.941Z,10.74
2018-04-05T03:04:53.897Z,10.74
2018-04-05T03:05:53.848Z,10.76
2018-04-05T03:06:53.801Z,10.70
2018-04-05T03:07:53.760Z,10.81
2018-04-05T03:08:53.707Z,10.76
2018-04-05T03:09:53.660Z,10.70
2018-04-05T03:10:53.613Z,10.76
2018-04-05T03:11:53.565Z,10.67
2018-04-05T03:12:53.518Z,10.73
2018-04-05T03:13:53.474Z,10.68
2018-04-05T03:14:53.424Z,10.67
2018-04-05T03:15:53.376Z,10.63
2018-04-05T03:16:53.329Z,10.67
2018-04-05T03:17:53.282Z,10.63
2018-04-05T03:18:53.234Z,10.67
2018-04-05T03:19:53.187Z,10.59
2018-04-05T03:20:53.140Z,10.64
2018-04-05T03:21:53.100Z,10.59
2018-04-05T03:22:53.046Z,10.53
2018-04-05T03:23:52.998Z,10.67
2018-04-05T03:24:52.950Z,10.55
2018-04-05T03:25:52.904Z,10.70
2018-04-05T03:26:52.866Z,10.48
2018-04-05T03:27:52.809Z,10.56
2018-04-05T03:28:52.762Z,10.53
2018-04-05T03:29:52.717Z,10.42
2018-04-05T03:30:52.668Z,10.52
2018-04-05T03:31:52.620Z,10.52
2018-04-05T03:32:52.579Z,10.47
2018-04-05T03:33:52.526Z,10.47
2018-04-05T03:34:52.479Z,10.52
2018-04-05T03:35:52.430Z,10.42
2018-04-05T03:36:52.382Z,10.48
2018-04-05T03:37:52.336Z,10.40
2018-04-05T03:38:52.289Z,10.47
2018-04-05T03:39:52.241Z,10.41
2018-04-05T03:40:52.194Z,10.44
2018-04-05T03:41:52.147Z,10.44
2018-04-05T03:42:52.100Z,10.48
2018-04-05T03:43:52.051Z,10.41
2018-04-05T03:44:52.004Z,10.45
2018-04-05T03:45:51.957Z,10.40
2018-04-05T03:46:51.910Z,10.38
2018-04-05T03:47:51.862Z,10.38
2018-04-05T03:48:51.815Z,10.44
2018-04-05T03:49:51.767Z,10.32
2018-04-05T03:50:51.720Z,10.41
2018-04-05T03:51:51.672Z,10.42
2018-04-05T03:52:51.625Z,10.36
2018-04-05T03:53:51.577Z,10.42
2018-04-05T03:54:51.531Z,10.40
2018-04-05T03:55:51.485Z,10.36
2018-04-05T03:56:51.434Z,10.26
2018-04-05T03:57:51.387Z,10.33
2018-04-05T03:58:51.340Z,10.27
2018-04-05T03:59:51.292Z,10.29
2018-04-05T04:00:51.245Z,10.36
2018-04-05T04:01:51.198Z,10.25
2018-04-05T04:02:51.150Z,10.25
2018-04-05T04:03:51.101Z,10.34
2018-04-05T04:04:51.055Z,10.27
2018-04-05T04:05:51.007Z,10.32
2018-04-05T04:06:50.960Z,10.34
2018-04-05T04:07:50.911Z,10.25
2018-04-05T04:08:50.864Z,10.22
2018-04-05T04:09:50.818Z,10.23
2018-04-05T04:10:50.770Z,10.20
2018-04-05T04:11:50.721Z,10.22
2018-04-05T04:12:50.674Z,10.26
2018-04-05T04:13:50.627Z,10.29
2018-04-05T04:14:50.579Z,10.29
2018-04-05T04:15:50.530Z,10.18
2018-04-05T04:16:50.484Z,10.20
2018-04-05T04:17:50.436Z,10.22
2018-04-05T04:18:50.389Z,10.26
2018-04-05T04:19:50.342Z,10.23
2018-04-05T04:20:50.293Z,10.25
2018-04-05T04:21:50.246Z,10.22
2018-04-05T04:22:50.200Z,10.14
2018-04-05T04:23:50.150Z,10.15
2018-04-05T04:24:50.103Z,10.20
2018-04-05T04:25:50.055Z,10.17
2018-04-05T04:26:50.008Z,10.15
2018-04-05T04:27:49.959Z,10.12
2018-04-05T04:28:49.912Z,10.12
2018-04-05T04:29:49.864Z,10.14
2018-04-05T04:30:49.817Z,10.18
2018-04-05T04:31:49.769Z,10.05
2018-04-05T04:32:49.722Z,10.08
2018-04-05T04:33:49.674Z,10.05
2018-04-05T04:34:49.626Z,10.05
2018-04-05T04:35:49.577Z,10.14
2018-04-05T04:36:49.530Z,10.09
2018-04-05T04:37:49.483Z,10.07
2018-04-05T04:38:49.436Z,10.05
2018-04-05T04:39:49.387Z,10.04
2018-04-05T04:40:49.340Z,10.09
2018-04-05T04:41:49.293Z,10.11
2018-04-05T04:42:49.245Z,10.07
2018-04-05T04:43:49.196Z,10.17
2018-04-05T04:44:49.149Z,10.12
2018-04-05T04:45:49.102Z,10.12
2018-04-05T04:46:49.055Z,10.23
2018-04-05T04:47:49.006Z,10.29
2018-04-05T04:48:48.958Z,10.27
2018-04-05T04:49:48.911Z,10.38
2018-04-05T04:50:48.864Z,10.44
2018-04-05T04:51:48.815Z,10.52
2018-04-05T04:52:48.768Z,10.63
2018-04-05T04:53:48.720Z,10.63
2018-04-05T04:54:48.673Z,10.78
2018-04-05T04:55:48.624Z,10.82
2018-04-05T04:56:48.577Z,10.78
2018-04-05T04:57:48.530Z,10.76
2018-04-05T04:58:48.483Z,10.84
2018-04-05T04:59:48.435Z,10.88
2018-04-05T05:00:48.395Z,10.94
2018-04-05T05:01:48.340Z,10.99
2018-04-05T05:02:48.293Z,10.92
2018-04-05T05:03:48.246Z,10.91
2018-04-05T05:04:48.198Z,11.03
2018-04-05T05:05:48.159Z,10.96
2018-04-05T05:06:48.104Z,10.94
2018-04-05T05:07:48.056Z,10.97
2018-04-05T05:08:48.008Z,10.97
2018-04-05T05:09:47.968Z,10.94
2018-04-05T05:10:47.914Z,10.79
2018-04-05T05:11:47.866Z,10.84
2018-04-05T05:12:47.820Z,10.70
2018-04-05T05:13:47.772Z,10.84
2018-04-05T05:14:47.725Z,10.81
2018-04-05T05:15:47.677Z,10.78
2018-04-05T05:16:47.630Z,10.63
2018-04-05T05:17:47.582Z,10.68
2018-04-05T05:18:47.536Z,10.68
2018-04-05T05:19:47.487Z,10.55
2018-04-05T05:20:47.440Z,10.52
2018-04-05T05:21:47.394Z,10.66
2018-04-05T05:22:47.346Z,10.64
2018-04-05T05:23:47.298Z,10.59
2018-04-05T05:24:47.251Z,10.61
2018-04-05T05:25:47.203Z,10.61
2018-04-05T05:26:47.157Z,10.55
2018-04-05T05:27:47.108Z,10.64
2018-04-05T05:28:47.066Z,10.63
2018-04-05T05:29:47.014Z,10.63
2018-04-05T05:30:46.967Z,10.68
2018-04-05T05:31:46.925Z,10.66
2018-04-05T05:32:46.871Z,10.70
2018-04-05T05:33:46.825Z,10.76
2018-04-05T05:34:46.777Z,10.74
2018-04-05T05:35:46.748Z,10.73
2018-04-05T05:36:46.681Z,10.81
2018-04-05T05:37:46.635Z,10.91
2018-04-05T05:38:46.588Z,10.99
2018-04-05T05:39:46.540Z,11.00
2018-04-05T05:40:46.493Z,11.11
2018-04-05T05:41:46.446Z,11.09
2018-04-05T05:42:46.399Z,11.09
2018-04-05T05:43:46.352Z,11.14
2018-04-05T05:44:46.304Z,11.19
2018-04-05T05:45:46.258Z,11.11
2018-04-05T05:46:46.211Z,11.19
2018-04-05T05:47:46.170Z,11.14
2018-04-05T05:48:46.117Z,11.19
2018-04-05T05:49:46.072Z,11.29
2018-04-05T05:50:46.023Z,11.32
2018-04-05T05:51:45.976Z,11.37
2018-04-05T05:52:45.929Z,11.35
2018-04-05T05:53:45.883Z,11.69
2018-04-05T05:54:45.836Z,12.39
2018-04-05T05:55:45.795Z,13.55
2018-04-05T05:56:45.743Z,14.83
2018-04-05T05:57:45.697Z,16.05
2018-04-05T05:58:45.652Z,17.18
2018-04-05T05:59:45.605Z,18.26
2018-04-05T06:00:45.560Z,19.08
2018-04-05T06:01:45.517Z,19.91
2018-04-05T06:02:45.473Z,20.59
2018-04-05T06:03:45.429Z,21.21
2018-04-05T06:04:45.386Z,21.88
2018-04-05T06:05:45.344Z,22.30
2018-04-05T06:06:45.303Z,22.86
2018-04-05T06:07:45.259Z,23.25
2018-04-05T06:08:45.218Z,23.16
2018-04-05T06:09:45.179Z,23.28
2018-04-05T06:10:45.135Z,23.39
2018-04-05T06:11:45.096Z,23.58
2018-04-05T06:12:45.054Z,23.84
2018-04-05T06:13:45.014Z,24.15
2018-04-05T06:14:44.974Z,24.43
2018-04-05T06:15:44.933Z,24.64
2018-04-05T06:16:44.894Z,24.85
2018-04-05T06:17:44.855Z,24.98
2018-04-05T06:18:44.816Z,25.06
2018-04-05T06:19:44.776Z,25.20
2018-04-05T06:20:44.738Z,25.40
2018-04-05T06:21:44.699Z,25.38
2018-04-05T06:22:44.661Z,25.46
2018-04-05T06:23:44.722Z,25.60
2018-04-05T06:24:44.583Z,25.79
2018-04-05T06:25:44.546Z,26.09
2018-04-05T06:26:44.510Z,26.60
2018-04-05T06:27:44.474Z,26.94
2018-04-05T06:28:44.434Z,27.29
2018-04-05T06:29:44.397Z,26.84
2018-04-05T06:30:44.361Z,26.09
2018-04-05T06:31:44.324Z,25.05
2018-04-05T06:32:44.286Z,24.13
2018-04-05T06:33:44.250Z,23.32
2018-04-05T06:34:44.211Z,22.68
2018-04-05T06:35:44.173Z,22.42
2018-04-05T06:36:44.144Z,22.55
2018-04-05T06:37:44.103Z,23.15
2018-04-05T06:38:44.060Z,23.61
2018-04-05T06:39:44.021Z,24.24
2018-04-05T06:40:43.982Z,24.65
2018-04-05T06:41:43.945Z,24.95
2018-04-05T06:42:43.907Z,25.40
2018-04-05T06:43:43.868Z,25.82
2018-04-05T06:44:43.832Z,26.28
2018-04-05T06:45:43.799Z,26.76
2018-04-05T06:46:43.758Z,27.22
2018-04-05T06:47:43.721Z,27.67
2018-04-05T06:48:43.685Z,28.18
2018-04-05T06:49:43.650Z,28.74
2018-04-05T06:50:43.616Z,29.08
2018-04-05T06:51:43.578Z,29.43
2018-04-05T06:52:43.543Z,29.78
2018-04-05T06:53:43.508Z,29.85
2018-04-05T06:54:43.474Z,29.42
2018-04-05T06:55:43.438Z,28.73
2018-04-05T06:56:43.403Z,27.94
2018-04-05T06:57:43.369Z,27.04
2018-04-05T06:58:43.335Z,26.39
2018-04-05T06:59:43.298Z,25.47
2018-04-05T07:00:43.263Z,24.83
2018-04-05T07:01:43.227Z,24.22
2018-04-05T07:02:43.191Z,23.57
2018-04-05T07:03:43.154Z,22.92
2018-04-05T07:04:43.118Z,22.36
2018-04-05T07:05:43.082Z,21.80
2018-04-05T07:06:43.051Z,21.28
2018-04-05T07:07:43.004Z,20.88
2018-04-05T07:08:42.967Z,20.55
2018-04-05T07:09:42.928Z,20.31
2018-04-05T07:10:42.889Z,20.02
2018-04-05T07:11:42.850Z,19.96
2018-04-05T07:12:42.810Z,19.86
2018-04-05T07:13:42.773Z,19.76
2018-04-05T07:14:42.732Z,19.65
2018-04-05T07:15:42.698Z,19.51
2018-04-05T07:16:42.659Z,19.46
2018-04-05T07:17:42.611Z,19.56
2018-04-05T07:18:42.570Z,19.73
2018-04-05T07:19:42.529Z,20.29
2018-04-05T07:20:42.489Z,20.72
2018-04-05T07:21:42.454Z,20.87
2018-04-05T07:22:42.408Z,21.53
2018-04-05T07:23:42.368Z,22.55
2018-04-05T07:24:42.329Z,23.70
2018-04-05T07:25:42.289Z,24.76
2018-04-05T07:26:42.250Z,25.65
2018-04-05T07:27:42.210Z,26.47
2018-04-05T07:28:42.173Z,27.37
2018-04-05T07:29:42.136Z,28.00
2018-04-05T07:30:42.104Z,28.52
2018-04-05T07:31:42.061Z,28.80
2018-04-05T07:32:42.025Z,28.90
2018-04-05T07:33:41.989Z,29.24
2018-04-05T07:34:41.955Z,29.61
2018-04-05T07:35:41.918Z,30.20
2018-04-05T07:36:41.884Z,30.65
2018-04-05T07:37:41.850Z,30.60
2018-04-05T07:38:41.817Z,30.60
2018-04-05T07:39:41.782Z,30.51
2018-04-05T07:40:41.749Z,30.35
2018-04-05T07:41:41.718Z,29.86
2018-04-05T07:42:41.686Z,30.17
2018-04-05T07:43:41.648Z,30.24
2018-04-05T07:44:41.616Z,30.31
2018-04-05T07:45:41.583Z,30.46
2018-04-05T07:46:41.551Z,30.76
2018-04-05T07:47:41.580Z,31.21
2018-04-05T07:48:41.484Z,31.58
2018-04-05T07:49:41.452Z,32.01
2018-04-05T07:50:41.421Z,32.11
2018-04-05T07:51:41.388Z,32.47
2018-04-05T07:52:41.356Z,32.87
2018-04-05T07:53:41.326Z,33.09
2018-04-05T07:54:41.295Z,33.23
2018-04-05T07:55:41.263Z,33.51
2018-04-05T07:56:41.232Z,33.66
2018-04-05T07:57:41.201Z,33.81
2018-04-05T07:58:41.171Z,33.38
2018-04-05T07:59:41.140Z,32.63
2018-04-05T08:00:41.110Z,32.59
2018-04-05T08:01:41.080Z,32.48
2018-04-05T08:02:41.048Z,32.28
2018-04-05T08:03:41.017Z,31.56
2018-04-05T08:04:40.987Z,30.47
2018-04-05T08:05:40.956Z,29.67
2018-04-05T08:06:40.924Z,29.43
2018-04-05T08:07:40.893Z,29.06
2018-04-05T08:08:40.911Z,28.88
2018-04-05T08:09:40.829Z,28.86
2018-04-05T08:10:40.796Z,28.78
2018-04-05T08:11:40.763Z,28.22
2018-04-05T08:12:40.731Z,27.99
2018-04-05T08:13:40.698Z,27.81
2018-04-05T08:14:40.670Z,28.29
2018-04-05T08:15:40.634Z,29.37
2018-04-05T08:16:40.599Z,30.11
2018-04-05T08:17:40.566Z,30.46
2018-04-05T08:18:40.534Z,30.70
2018-04-05T08:19:40.500Z,30.89
2018-04-05T08:20:40.468Z,30.39
2018-04-05T08:21:40.436Z,29.80
2018-04-05T08:22:40.407Z,29.49
2018-04-05T08:23:40.370Z,29.08
2018-04-05T08:24:40.337Z,28.73
2018-04-05T08:25:40.306Z,28.44
2018-04-05T08:26:40.281Z,27.97
2018-04-05T08:27:40.237Z,27.22
2018-04-05T08:28:40.203Z,26.51
2018-04-05T08:29:40.170Z,25.75
2018-04-05T08:30:40.136Z,25.25
2018-04-05T08:31:40.100Z,24.73
2018-04-05T08:32:40.066Z,24.20
2018-04-05T08:33:40.032Z,24.25
2018-04-05T08:34:39.996Z,24.61
2018-04-05T08:35:39.959Z,24.99
2018-04-05T08:36:39.924Z,25.97
2018-04-05T08:37:39.888Z,27.25
2018-04-05T08:38:39.853Z,28.55
2018-04-05T08:39:39.823Z,28.89
2018-04-05T08:40:39.784Z,28.85
2018-04-05T08:41:39.749Z,29.34
2018-04-05T08:42:39.716Z,29.74
2018-04-05T08:43:39.681Z,30.29
2018-04-05T08:44:39.648Z,31.07
2018-04-05T08:45:39.615Z,31.95
2018-04-05T08:46:39.582Z,32.82
2018-04-05T08:47:39.549Z,33.16
2018-04-05T08:48:39.517Z,33.31
2018-04-05T08:49:39.486Z,33.84
2018-04-05T08:50:39.456Z,33.88
2018-04-05T08:51:39.423Z,34.22
2018-04-05T08:52:39.392Z,34.52
2018-04-05T08:53:39.362Z,35.02
2018-04-05T08:54:39.334Z,35.47
2018-04-05T08:55:39.300Z,35.48
2018-04-05T08:56:39.273Z,35.28
2018-04-05T08:57:39.302Z,34.52
2018-04-05T08:58:39.213Z,34.43
2018-04-05T08:59:39.183Z,34.75
2018-04-05T09:00:39.154Z,35.10
2018-04-05T09:01:39.125Z,35.22
2018-04-05T09:02:39.109Z,35.50
2018-04-05T09:03:39.066Z,35.77
2018-04-05T09:04:39.037Z,36.19
2018-04-05T09:05:39.010Z,36.51
2018-04-05T09:06:38.986Z,36.95
2018-04-05T09:07:38.953Z,37.24
2018-04-05T09:08:38.926Z,36.84
2018-04-05T09:09:38.898Z,35.53
2018-04-05T09:10:38.924Z,34.24
2018-04-05T09:11:38.849Z,33.03
2018-04-05T09:12:38.813Z,32.33
2018-04-05T09:13:38.784Z,31.80
2018-04-05T09:14:38.756Z,30.86
2018-04-05T09:15:38.728Z,30.11
2018-04-05T09:16:38.695Z,29.53
2018-04-05T09:17:38.665Z,28.92
2018-04-05T09:18:38.632Z,28.37
2018-04-05T09:19:38.601Z,27.63
2018-04-05T09:20:38.568Z,26.91
2018-04-05T09:21:38.536Z,26.29
2018-04-05T09:22:38.504Z,25.79
2018-04-05T09:23:38.470Z,25.32
2018-04-05T09:24:38.436Z,24.95
2018-04-05T09:25:38.402Z,24.93
2018-04-05T09:26:38.369Z,24.67
2018-04-05T09:27:38.332Z,24.49
2018-04-05T09:28:38.298Z,24.52
2018-04-05T09:29:38.263Z,24.65
2018-04-05T09:30:38.228Z,25.06
2018-04-05T09:31:38.192Z,25.35
2018-04-05T09:32:38.156Z,25.99
2018-04-05T09:33:38.173Z,26.81
2018-04-05T09:34:38.087Z,28.14
2018-04-05T09:35:38.052Z,29.15
2018-04-05T09:36:38.018Z,29.49
2018-04-05T09:37:37.983Z,29.57
2018-04-05T09:38:37.950Z,29.63
2018-04-05T09:39:37.965Z,29.11
2018-04-05T09:40:37.881Z,28.48
2018-04-05T09:41:37.847Z,27.75
2018-04-05T09:42:37.818Z,26.82
2018-04-05T09:43:37.778Z,26.13
2018-04-05T09:44:37.745Z,25.36
2018-04-05T09:45:37.709Z,24.65
2018-04-05T09:46:37.674Z,24.15
2018-04-05T09:47:37.642Z,23.75
2018-04-05T09:48:37.601Z,23.39
2018-04-05T09:49:37.564Z,23.13
2018-04-05T09:50:37.528Z,23.02
2018-04-05T09:51:37.490Z,22.90
2018-04-05T09:52:37.453Z,22.73
2018-04-05T09:53:37.416Z,22.51
2018-04-05T09:54:37.379Z,22.25
2018-04-05T09:55:37.340Z,22.18
2018-04-05T09:56:37.301Z,22.15
2018-04-05T09:57:37.264Z,22.05
2018-04-05T09:58:37.226Z,22.00
2018-04-05T09:59:37.186Z,21.96
2018-04-05T10:00:37.148Z,22.06
2018-04-05T10:01:37.109Z,22.09
2018-04-05T10:02:37.075Z,22.17
2018-04-05T10:03:37.031Z,22.28
2018-04-05T10:04:36.992Z,22.39
2018-04-05T10:05:36.957Z,22.43
2018-04-05T10:06:36.915Z,22.42
2018-04-05T10:07:36.874Z,22.55
2018-04-05T10:08:36.835Z,22.62
2018-04-05T10:09:36.810Z,22.60
2018-04-05T10:10:36.757Z,22.52
2018-04-05T10:11:36.721Z,22.40
2018-04-05T10:12:36.678Z,22.27
2018-04-05T10:13:36.639Z,22.03
2018-04-05T10:14:36.601Z,21.92
2018-04-05T10:15:36.560Z,21.49
2018-04-05T10:16:36.520Z,21.28
2018-04-05T10:17:36.480Z,21.12
2018-04-05T10:18:36.448Z,20.87
2018-04-05T10:19:36.401Z,20.74
2018-04-05T10:20:36.361Z,20.55
2018-04-05T10:21:36.320Z,20.35
2018-04-05T10:22:36.281Z,20.18
2018-04-05T10:23:36.240Z,20.03
2018-04-05T10:24:36.199Z,19.86
2018-04-05T10:25:36.159Z,19.73
2018-04-05T10:26:36.119Z,19.54
2018-04-05T10:27:36.076Z,19.61
2018-04-05T10:28:36.036Z,19.51
2018-04-05T10:29:35.995Z,19.55
2018-04-05T10:30:35.954Z,19.43
2018-04-05T10:31:35.912Z,19.54
2018-04-05T10:32:35.877Z,19.69
2018-04-05T10:33:35.831Z,19.80
2018-04-05T10:34:35.790Z,19.81
2018-04-05T10:35:35.748Z,19.86
2018-04-05T10:36:35.707Z,19.98
2018-04-05T10:37:35.666Z,20.02
2018-04-05T10:38:35.625Z,20.16
2018-04-05T10:39:35.583Z,20.18
2018-04-05T10:40:35.542Z,20.01
2018-04-05T10:41:35.501Z,20.02
2018-04-05T10:42:35.460Z,19.84
2018-04-05T10:43:35.421Z,19.76
2018-04-05T10:44:35.378Z,19.61
2018-04-05T10:45:35.339Z,19.54
2018-04-05T10:46:35.295Z,19.58
2018-04-05T10:47:35.254Z,19.66
2018-04-05T10:48:35.213Z,19.66
2018-04-05T10:49:35.172Z,19.74
2018-04-05T10:50:35.132Z,19.65
2018-04-05T10:51:35.088Z,19.62
2018-04-05T10:52:35.071Z,19.81
2018-04-05T10:53:35.008Z,19.95
2018-04-05T10:54:34.965Z,19.98
2018-04-05T10:55:34.923Z,20.13
2018-04-05T10:56:34.881Z,20.17
2018-04-05T10:57:34.844Z,20.21
2018-04-05T10:58:34.800Z,20.26
2018-04-05T10:59:34.759Z,20.17
2018-04-05T11:00:34.718Z,20.17
2018-04-05T11:01:34.676Z,20.11
2018-04-05T11:02:34.635Z,20.02
2018-04-05T11:03:34.593Z,19.92
2018-04-05T11:04:34.552Z,19.88
2018-04-05T11:05:34.512Z,19.87
2018-04-05T11:06:34.470Z,19.86
2018-04-05T11:07:34.428Z,19.88
2018-04-05T11:08:34.388Z,19.92
2018-04-05T11:09:34.346Z,19.98
2018-04-05T11:10:34.305Z,19.92
2018-04-05T11:11:34.263Z,20.18
2018-04-05T11:12:34.225Z,20.17
2018-04-05T11:13:34.184Z,20.18
2018-04-05T11:14:34.140Z,20.31
2018-04-05T11:15:34.099Z,20.28
2018-04-05T11:16:34.058Z,20.29
2018-04-05T11:17:34.017Z,20.28
2018-04-05T11:18:33.976Z,20.35
2018-04-05T11:19:33.934Z,20.41
2018-04-05T11:20:33.894Z,20.47
2018-04-05T11:21:33.852Z,20.54
2018-04-05T11:22:33.812Z,20.59
2018-04-05T11:23:33.770Z,20.57
2018-04-05T11:24:33.774Z,20.72
2018-04-05T11:25:33.690Z,20.80
2018-04-05T11:26:33.648Z,20.79
2018-04-05T11:27:33.606Z,21.03
2018-04-05T11:28:33.566Z,21.06
2018-04-05T11:29:33.528Z,21.25
2018-04-05T11:30:33.484Z,21.29
2018-04-05T11:31:33.443Z,21.43
2018-04-05T11:32:33.403Z,21.58
2018-04-05T11:33:33.362Z,21.61
2018-04-05T11:34:33.323Z,21.61
2018-04-05T11:35:33.281Z,21.61
2018-04-05T11:36:33.241Z,21.69
2018-04-05T11:37:33.201Z,21.62
2018-04-05T11:38:33.161Z,21.65
2018-04-05T11:39:33.120Z,21.44
2018-04-05T11:40:33.081Z,21.52
2018-04-05T11:41:33.040Z,21.34
2018-04-05T11:42:33.009Z,21.44
2018-04-05T11:43:32.958Z,21.43
2018-04-05T11:44:32.918Z,21.29
2018-04-05T11:45:32.878Z,21.21
2018-04-05T11:46:32.837Z,21.27
2018-04-05T11:47:32.797Z,21.03
2018-04-05T11:48:32.757Z,20.89
2018-04-05T11:49:32.716Z,20.80
2018-04-05T11:50:32.676Z,20.77
2018-04-05T11:51:32.644Z,20.77
2018-04-05T11:52:32.594Z,20.76
2018-04-05T11:53:32.555Z,20.57
2018-04-05T11:54:32.514Z,20.54
2018-04-05T11:55:32.473Z,20.47
2018-04-05T11:56:32.439Z,20.48
2018-04-05T11:57:32.392Z,20.50
2018-04-05T11:58:32.411Z,20.54
2018-04-05T11:59:32.310Z,20.57
2018-04-05T12:00:32.270Z,20.55
2018-04-05T12:01:32.229Z,20.69
2018-04-05T12:02:32.188Z,20.73
2018-04-05T12:03:32.151Z,20.80
2018-04-05T12:04:32.107Z,20.69
2018-04-05T12:05:32.067Z,20.59
2018-04-05T12:06:32.026Z,20.51
2018-04-05T12:07:32.016Z,20.64
2018-04-05T12:08:31.947Z,20.54
2018-04-05T12:09:31.903Z,20.54
2018-04-05T12:10:31.862Z,20.51
2018-04-05T12:11:31.821Z,20.51
2018-04-05T12:12:31.785Z,20.52
2018-04-05T12:13:31.740Z,20.42
2018-04-05T12:14:31.703Z,20.36
2018-04-05T12:15:31.656Z,20.20
2018-04-05T12:16:31.616Z,20.13
2018-04-05T12:17:31.575Z,19.96
2018-04-05T12:18:31.535Z,19.81
2018-04-05T12:19:31.499Z,19.69
2018-04-05T12:20:31.452Z,19.63
2018-04-05T12:21:31.412Z,19.59
2018-04-05T12:22:31.373Z,19.62
2018-04-05T12:23:31.328Z,19.56
2018-04-05T12:24:31.339Z,19.54
2018-04-05T12:25:31.246Z,19.61
2018-04-05T12:26:31.204Z,19.71
2018-04-05T12:27:31.162Z,19.78
2018-04-05T12:28:31.121Z,19.94
2018-04-05T12:29:31.080Z,20.01
2018-04-05T12:30:31.041Z,20.02
2018-04-05T12:31:30.997Z,19.88
2018-04-05T12:32:30.956Z,19.87
2018-04-05T12:33:30.917Z,19.83
2018-04-05T12:34:30.875Z,19.84
2018-04-05T12:35:30.831Z,19.80
2018-04-05T12:36:30.791Z,19.66
2018-04-05T12:37:30.750Z,19.56
2018-04-05T12:38:30.708Z,19.58
2018-04-05T12:39:30.666Z,19.48
2018-04-05T12:40:30.625Z,19.37
2018-04-05T12:41:30.584Z,19.33
2018-04-05T12:42:30.543Z,19.19
2018-04-05T12:43:30.500Z,19.18
2018-04-05T12:44:30.459Z,19.21
2018-04-05T12:45:30.418Z,19.16
2018-04-05T12:46:30.377Z,19.14
2018-04-05T12:47:30.334Z,19.21
2018-04-05T12:48:30.293Z,19.29
2018-04-05T12:49:30.252Z,19.47
2018-04-05T12:50:30.211Z,19.48
2018-04-05T12:51:30.168Z,19.59